<?xml version="1.0" encoding="UTF-8" standalone="no" ?>
<gpx xmlns="http://www.topografix.com/GPX/1/1" xmlns:xsi="http://www.w3.org/2001/XMLSchema-instance" xsi:schemaLocation="http://www.topografix.com/GPX/1/1 http://www.topografix.com/GPX/1/1/gpx.xsd" version="1.1" creator="VisuGPX - https://www.visugpx.com">
  <metadata>
    <name>Baigorri Vallon de Lespars</name>
    <desc><![CDATA[Petite randonnée dans le vallon de Lespars sur un circuit parcouru par divers tracés de la station trail de Baigorri ( circuit Buztanzelai et circuit Lixketa), et lors des épreuves d'Euskal Trail ( circuit Neska Trail). 
Notre circuit démarrera du trinquet de St Etienne de Baigorry, ira à Lespars, puis montera sur la colline de  Picomendi , le traversera, puis poursuivra dans le vallon de Leizpars.  Retour en rejoignant le GR10, et final par la petite route qui nous ramènera directement à Lespars .
Outre le fait de faire une petite randonnée d'oxygénation, ce sera l'occasion de vérifier l'état des pistes et sentiers empruntés. 

[url=https://gb-rando.blogspot.com/2026/09/Baigorri-vallon-de-Lespars.html]voir rando[/url]

]]></desc>
  </metadata>
  <trk>
    <name><![CDATA[VALLON LESPARS01:38]]></name>
    <trkseg>
      <trkpt lat="43.18341" lon="-1.33337">
        <ele>153.05</ele>
        <time>2026-08-31T06:18:53Z</time>
      </trkpt>
      <trkpt lat="43.1834" lon="-1.33338">
        <ele>153.05</ele>
        <time>2026-08-31T06:18:54Z</time>
      </trkpt>
      <trkpt lat="43.1834" lon="-1.33338">
        <ele>144.98</ele>
        <time>2026-08-31T06:18:57Z</time>
      </trkpt>
      <trkpt lat="43.1834" lon="-1.33338">
        <ele>144.98</ele>
        <time>2026-08-31T06:18:58Z</time>
      </trkpt>
      <trkpt lat="43.18342" lon="-1.33337">
        <ele>141.54</ele>
        <time>2026-08-31T06:19:24Z</time>
      </trkpt>
      <trkpt lat="43.18341" lon="-1.33337">
        <ele>146.07</ele>
        <time>2026-08-31T06:19:27Z</time>
      </trkpt>
      <trkpt lat="43.18342" lon="-1.33338">
        <ele>144.2</ele>
        <time>2026-08-31T06:19:29Z</time>
      </trkpt>
      <trkpt lat="43.18345" lon="-1.33332">
        <ele>144.87</ele>
        <time>2026-08-31T06:19:47Z</time>
      </trkpt>
      <trkpt lat="43.18342" lon="-1.33337">
        <ele>145.69</ele>
        <time>2026-08-31T06:20:05Z</time>
      </trkpt>
      <trkpt lat="43.1834" lon="-1.33339">
        <ele>145.83</ele>
        <time>2026-08-31T06:20:28Z</time>
      </trkpt>
      <trkpt lat="43.18339" lon="-1.33338">
        <ele>145.62</ele>
        <time>2026-08-31T06:20:50Z</time>
      </trkpt>
      <trkpt lat="43.18339" lon="-1.33337">
        <ele>145.57</ele>
        <time>2026-08-31T06:21:13Z</time>
      </trkpt>
      <trkpt lat="43.1834" lon="-1.33336">
        <ele>145.38</ele>
        <time>2026-08-31T06:21:48Z</time>
      </trkpt>
      <trkpt lat="43.1834" lon="-1.33338">
        <ele>145.5</ele>
        <time>2026-08-31T06:22:06Z</time>
      </trkpt>
      <trkpt lat="43.1834" lon="-1.33341">
        <ele>145.42</ele>
        <time>2026-08-31T06:22:32Z</time>
      </trkpt>
      <trkpt lat="43.18339" lon="-1.33344">
        <ele>145.26</ele>
        <time>2026-08-31T06:23:00Z</time>
      </trkpt>
      <trkpt lat="43.18336" lon="-1.33343">
        <ele>145.23</ele>
        <time>2026-08-31T06:23:29Z</time>
      </trkpt>
      <trkpt lat="43.18333" lon="-1.33341">
        <ele>145.21</ele>
        <time>2026-08-31T06:23:59Z</time>
      </trkpt>
      <trkpt lat="43.1833" lon="-1.33341">
        <ele>145.22</ele>
        <time>2026-08-31T06:24:11Z</time>
      </trkpt>
      <trkpt lat="43.1833" lon="-1.33341">
        <ele>145.32</ele>
        <time>2026-08-31T06:24:17Z</time>
      </trkpt>
      <trkpt lat="43.18333" lon="-1.33342">
        <ele>145.32</ele>
        <time>2026-08-31T06:24:42Z</time>
      </trkpt>
      <trkpt lat="43.18335" lon="-1.3334">
        <ele>145.31</ele>
        <time>2026-08-31T06:25:07Z</time>
      </trkpt>
      <trkpt lat="43.18334" lon="-1.33343">
        <ele>145.26</ele>
        <time>2026-08-31T06:25:39Z</time>
      </trkpt>
      <trkpt lat="43.18333" lon="-1.33351">
        <ele>145.2</ele>
        <time>2026-08-31T06:25:57Z</time>
      </trkpt>
      <trkpt lat="43.18332" lon="-1.33355">
        <ele>145.35</ele>
        <time>2026-08-31T06:26:01Z</time>
      </trkpt>
      <trkpt lat="43.18328" lon="-1.33371">
        <ele>145.34</ele>
        <time>2026-08-31T06:26:16Z</time>
      </trkpt>
      <trkpt lat="43.18327" lon="-1.33372">
        <ele>145.37</ele>
        <time>2026-08-31T06:26:17Z</time>
      </trkpt>
      <trkpt lat="43.18323" lon="-1.33378">
        <ele>145.39</ele>
        <time>2026-08-31T06:26:23Z</time>
      </trkpt>
      <trkpt lat="43.18303" lon="-1.33402">
        <ele>145.95</ele>
        <time>2026-08-31T06:26:49Z</time>
      </trkpt>
      <trkpt lat="43.18289" lon="-1.33432">
        <ele>146.22</ele>
        <time>2026-08-31T06:27:15Z</time>
      </trkpt>
      <trkpt lat="43.18288" lon="-1.33442">
        <ele>146.2</ele>
        <time>2026-08-31T06:27:23Z</time>
      </trkpt>
      <trkpt lat="43.18273" lon="-1.33464">
        <ele>146.55</ele>
        <time>2026-08-31T06:27:45Z</time>
      </trkpt>
      <trkpt lat="43.18259" lon="-1.33485">
        <ele>146.93</ele>
        <time>2026-08-31T06:28:05Z</time>
      </trkpt>
      <trkpt lat="43.18244" lon="-1.33511">
        <ele>147.38</ele>
        <time>2026-08-31T06:28:30Z</time>
      </trkpt>
      <trkpt lat="43.18241" lon="-1.33513">
        <ele>147.44</ele>
        <time>2026-08-31T06:28:33Z</time>
      </trkpt>
      <trkpt lat="43.1824" lon="-1.33514">
        <ele>147.33</ele>
        <time>2026-08-31T06:28:34Z</time>
      </trkpt>
      <trkpt lat="43.18238" lon="-1.33516">
        <ele>147.28</ele>
        <time>2026-08-31T06:28:37Z</time>
      </trkpt>
      <trkpt lat="43.18235" lon="-1.33536">
        <ele>147.5</ele>
        <time>2026-08-31T06:28:52Z</time>
      </trkpt>
      <trkpt lat="43.1824" lon="-1.3355">
        <ele>148.26</ele>
        <time>2026-08-31T06:29:06Z</time>
      </trkpt>
      <trkpt lat="43.18239" lon="-1.33556">
        <ele>148.33</ele>
        <time>2026-08-31T06:29:11Z</time>
      </trkpt>
      <trkpt lat="43.18241" lon="-1.3358">
        <ele>148.72</ele>
        <time>2026-08-31T06:29:30Z</time>
      </trkpt>
      <trkpt lat="43.18243" lon="-1.33606">
        <ele>148.7</ele>
        <time>2026-08-31T06:29:50Z</time>
      </trkpt>
      <trkpt lat="43.18245" lon="-1.33634">
        <ele>148.8</ele>
        <time>2026-08-31T06:30:09Z</time>
      </trkpt>
      <trkpt lat="43.18247" lon="-1.33649">
        <ele>148.53</ele>
        <time>2026-08-31T06:30:20Z</time>
      </trkpt>
      <trkpt lat="43.18255" lon="-1.33667">
        <ele>148.47</ele>
        <time>2026-08-31T06:30:35Z</time>
      </trkpt>
      <trkpt lat="43.18256" lon="-1.33668">
        <ele>148.44</ele>
        <time>2026-08-31T06:30:36Z</time>
      </trkpt>
      <trkpt lat="43.18271" lon="-1.33674">
        <ele>147.98</ele>
        <time>2026-08-31T06:30:51Z</time>
      </trkpt>
      <trkpt lat="43.18297" lon="-1.3367">
        <ele>147.2</ele>
        <time>2026-08-31T06:31:16Z</time>
      </trkpt>
      <trkpt lat="43.18306" lon="-1.3367">
        <ele>146.84</ele>
        <time>2026-08-31T06:31:31Z</time>
      </trkpt>
      <trkpt lat="43.18308" lon="-1.33669">
        <ele>146.8</ele>
        <time>2026-08-31T06:31:46Z</time>
      </trkpt>
      <trkpt lat="43.1831" lon="-1.33669">
        <ele>146.88</ele>
        <time>2026-08-31T06:31:52Z</time>
      </trkpt>
      <trkpt lat="43.18311" lon="-1.33669">
        <ele>146.96</ele>
        <time>2026-08-31T06:31:53Z</time>
      </trkpt>
      <trkpt lat="43.18313" lon="-1.33669">
        <ele>146.94</ele>
        <time>2026-08-31T06:31:55Z</time>
      </trkpt>
      <trkpt lat="43.18339" lon="-1.33675">
        <ele>146.31</ele>
        <time>2026-08-31T06:32:19Z</time>
      </trkpt>
      <trkpt lat="43.18352" lon="-1.33681">
        <ele>145.99</ele>
        <time>2026-08-31T06:32:32Z</time>
      </trkpt>
      <trkpt lat="43.18354" lon="-1.33682">
        <ele>145.85</ele>
        <time>2026-08-31T06:32:34Z</time>
      </trkpt>
      <trkpt lat="43.18369" lon="-1.33693">
        <ele>145.72</ele>
        <time>2026-08-31T06:32:51Z</time>
      </trkpt>
      <trkpt lat="43.18371" lon="-1.33694">
        <ele>145.5</ele>
        <time>2026-08-31T06:32:53Z</time>
      </trkpt>
      <trkpt lat="43.18372" lon="-1.33695">
        <ele>145.37</ele>
        <time>2026-08-31T06:32:54Z</time>
      </trkpt>
      <trkpt lat="43.18386" lon="-1.33694">
        <ele>144.84</ele>
        <time>2026-08-31T06:33:08Z</time>
      </trkpt>
      <trkpt lat="43.18401" lon="-1.33692">
        <ele>144.65</ele>
        <time>2026-08-31T06:33:24Z</time>
      </trkpt>
      <trkpt lat="43.18415" lon="-1.33687">
        <ele>144.57</ele>
        <time>2026-08-31T06:33:40Z</time>
      </trkpt>
      <trkpt lat="43.18419" lon="-1.33686">
        <ele>144.69</ele>
        <time>2026-08-31T06:33:44Z</time>
      </trkpt>
      <trkpt lat="43.1843" lon="-1.33683">
        <ele>144.77</ele>
        <time>2026-08-31T06:33:55Z</time>
      </trkpt>
      <trkpt lat="43.18442" lon="-1.33678">
        <ele>144.67</ele>
        <time>2026-08-31T06:34:11Z</time>
      </trkpt>
      <trkpt lat="43.18456" lon="-1.33667">
        <ele>144.61</ele>
        <time>2026-08-31T06:34:30Z</time>
      </trkpt>
      <trkpt lat="43.1847" lon="-1.33658">
        <ele>145.2</ele>
        <time>2026-08-31T06:34:50Z</time>
      </trkpt>
      <trkpt lat="43.18484" lon="-1.33647">
        <ele>144.65</ele>
        <time>2026-08-31T06:35:08Z</time>
      </trkpt>
      <trkpt lat="43.18491" lon="-1.33641">
        <ele>144.75</ele>
        <time>2026-08-31T06:35:17Z</time>
      </trkpt>
      <trkpt lat="43.185" lon="-1.33639">
        <ele>144.85</ele>
        <time>2026-08-31T06:35:27Z</time>
      </trkpt>
      <trkpt lat="43.18515" lon="-1.33645">
        <ele>145.53</ele>
        <time>2026-08-31T06:35:43Z</time>
      </trkpt>
      <trkpt lat="43.18532" lon="-1.3364">
        <ele>147.76</ele>
        <time>2026-08-31T06:36:01Z</time>
      </trkpt>
      <trkpt lat="43.18541" lon="-1.33649">
        <ele>150.79</ele>
        <time>2026-08-31T06:36:18Z</time>
      </trkpt>
      <trkpt lat="43.18547" lon="-1.33659">
        <ele>153.69</ele>
        <time>2026-08-31T06:36:34Z</time>
      </trkpt>
      <trkpt lat="43.18548" lon="-1.33663">
        <ele>154.78</ele>
        <time>2026-08-31T06:36:54Z</time>
      </trkpt>
      <trkpt lat="43.18552" lon="-1.3367">
        <ele>154.8</ele>
        <time>2026-08-31T06:37:01Z</time>
      </trkpt>
      <trkpt lat="43.1856" lon="-1.33689">
        <ele>156.1</ele>
        <time>2026-08-31T06:37:20Z</time>
      </trkpt>
      <trkpt lat="43.18568" lon="-1.33688">
        <ele>156.76</ele>
        <time>2026-08-31T06:37:47Z</time>
      </trkpt>
      <trkpt lat="43.18574" lon="-1.33687">
        <ele>157.74</ele>
        <time>2026-08-31T06:37:54Z</time>
      </trkpt>
      <trkpt lat="43.18582" lon="-1.33689">
        <ele>159.57</ele>
        <time>2026-08-31T06:38:06Z</time>
      </trkpt>
      <trkpt lat="43.18597" lon="-1.3369">
        <ele>161.24</ele>
        <time>2026-08-31T06:38:24Z</time>
      </trkpt>
      <trkpt lat="43.18611" lon="-1.33703">
        <ele>162.7</ele>
        <time>2026-08-31T06:38:42Z</time>
      </trkpt>
      <trkpt lat="43.18621" lon="-1.33713">
        <ele>164.44</ele>
        <time>2026-08-31T06:39:00Z</time>
      </trkpt>
      <trkpt lat="43.1863" lon="-1.3372">
        <ele>165.68</ele>
        <time>2026-08-31T06:39:18Z</time>
      </trkpt>
      <trkpt lat="43.18638" lon="-1.33728">
        <ele>168.31</ele>
        <time>2026-08-31T06:39:39Z</time>
      </trkpt>
      <trkpt lat="43.18648" lon="-1.33739">
        <ele>171.31</ele>
        <time>2026-08-31T06:40:01Z</time>
      </trkpt>
      <trkpt lat="43.1866" lon="-1.33742">
        <ele>174.1</ele>
        <time>2026-08-31T06:40:23Z</time>
      </trkpt>
      <trkpt lat="43.18669" lon="-1.33747">
        <ele>175.73</ele>
        <time>2026-08-31T06:40:48Z</time>
      </trkpt>
      <trkpt lat="43.18679" lon="-1.33752">
        <ele>178.81</ele>
        <time>2026-08-31T06:41:10Z</time>
      </trkpt>
      <trkpt lat="43.18693" lon="-1.33759">
        <ele>181.92</ele>
        <time>2026-08-31T06:41:34Z</time>
      </trkpt>
      <trkpt lat="43.18703" lon="-1.33767">
        <ele>184.55</ele>
        <time>2026-08-31T06:41:58Z</time>
      </trkpt>
      <trkpt lat="43.18712" lon="-1.33779">
        <ele>186.84</ele>
        <time>2026-08-31T06:42:21Z</time>
      </trkpt>
      <trkpt lat="43.18721" lon="-1.33792">
        <ele>188.93</ele>
        <time>2026-08-31T06:42:43Z</time>
      </trkpt>
      <trkpt lat="43.1873" lon="-1.33803">
        <ele>191.83</ele>
        <time>2026-08-31T06:43:07Z</time>
      </trkpt>
      <trkpt lat="43.18738" lon="-1.3381">
        <ele>193.66</ele>
        <time>2026-08-31T06:43:26Z</time>
      </trkpt>
      <trkpt lat="43.1875" lon="-1.33817">
        <ele>196.53</ele>
        <time>2026-08-31T06:43:50Z</time>
      </trkpt>
      <trkpt lat="43.18756" lon="-1.33815">
        <ele>196.72</ele>
        <time>2026-08-31T06:44:09Z</time>
      </trkpt>
      <trkpt lat="43.18766" lon="-1.33819">
        <ele>199.06</ele>
        <time>2026-08-31T06:44:32Z</time>
      </trkpt>
      <trkpt lat="43.18775" lon="-1.33826">
        <ele>201.5</ele>
        <time>2026-08-31T06:44:52Z</time>
      </trkpt>
      <trkpt lat="43.1878" lon="-1.33838">
        <ele>204.14</ele>
        <time>2026-08-31T06:45:16Z</time>
      </trkpt>
      <trkpt lat="43.18785" lon="-1.33852">
        <ele>205.74</ele>
        <time>2026-08-31T06:45:33Z</time>
      </trkpt>
      <trkpt lat="43.18794" lon="-1.33873">
        <ele>207.66</ele>
        <time>2026-08-31T06:45:59Z</time>
      </trkpt>
      <trkpt lat="43.188" lon="-1.33884">
        <ele>209.42</ele>
        <time>2026-08-31T06:46:22Z</time>
      </trkpt>
      <trkpt lat="43.18811" lon="-1.33896">
        <ele>211.61</ele>
        <time>2026-08-31T06:46:43Z</time>
      </trkpt>
      <trkpt lat="43.18814" lon="-1.33902">
        <ele>211.93</ele>
        <time>2026-08-31T06:47:04Z</time>
      </trkpt>
      <trkpt lat="43.1881" lon="-1.33906">
        <ele>211.97</ele>
        <time>2026-08-31T06:47:32Z</time>
      </trkpt>
      <trkpt lat="43.18811" lon="-1.33906">
        <ele>212.02</ele>
        <time>2026-08-31T06:47:43Z</time>
      </trkpt>
      <trkpt lat="43.18824" lon="-1.33918">
        <ele>213.5</ele>
        <time>2026-08-31T06:48:06Z</time>
      </trkpt>
      <trkpt lat="43.18833" lon="-1.3393">
        <ele>215.13</ele>
        <time>2026-08-31T06:48:27Z</time>
      </trkpt>
      <trkpt lat="43.18836" lon="-1.33932">
        <ele>215.5</ele>
        <time>2026-08-31T06:48:48Z</time>
      </trkpt>
      <trkpt lat="43.18847" lon="-1.33944">
        <ele>217.1</ele>
        <time>2026-08-31T06:49:06Z</time>
      </trkpt>
      <trkpt lat="43.18862" lon="-1.33953">
        <ele>219.53</ele>
        <time>2026-08-31T06:49:26Z</time>
      </trkpt>
      <trkpt lat="43.18875" lon="-1.3396">
        <ele>220.38</ele>
        <time>2026-08-31T06:49:44Z</time>
      </trkpt>
      <trkpt lat="43.18889" lon="-1.3397">
        <ele>221.17</ele>
        <time>2026-08-31T06:50:04Z</time>
      </trkpt>
      <trkpt lat="43.18901" lon="-1.33977">
        <ele>219.54</ele>
        <time>2026-08-31T06:50:24Z</time>
      </trkpt>
      <trkpt lat="43.18912" lon="-1.33988">
        <ele>217.47</ele>
        <time>2026-08-31T06:50:48Z</time>
      </trkpt>
      <trkpt lat="43.18934" lon="-1.33994">
        <ele>216.55</ele>
        <time>2026-08-31T06:51:13Z</time>
      </trkpt>
      <trkpt lat="43.18952" lon="-1.33998">
        <ele>216.25</ele>
        <time>2026-08-31T06:51:33Z</time>
      </trkpt>
      <trkpt lat="43.1896" lon="-1.34002">
        <ele>216.57</ele>
        <time>2026-08-31T06:51:43Z</time>
      </trkpt>
      <trkpt lat="43.18973" lon="-1.34013">
        <ele>217.39</ele>
        <time>2026-08-31T06:52:01Z</time>
      </trkpt>
      <trkpt lat="43.1898" lon="-1.34027">
        <ele>218.72</ele>
        <time>2026-08-31T06:52:17Z</time>
      </trkpt>
      <trkpt lat="43.18983" lon="-1.34043">
        <ele>221.77</ele>
        <time>2026-08-31T06:52:39Z</time>
      </trkpt>
      <trkpt lat="43.18988" lon="-1.34058">
        <ele>224.96</ele>
        <time>2026-08-31T06:53:00Z</time>
      </trkpt>
      <trkpt lat="43.18997" lon="-1.34075">
        <ele>227.9</ele>
        <time>2026-08-31T06:53:23Z</time>
      </trkpt>
      <trkpt lat="43.19003" lon="-1.34087">
        <ele>228.36</ele>
        <time>2026-08-31T06:53:41Z</time>
      </trkpt>
      <trkpt lat="43.19011" lon="-1.34104">
        <ele>228.69</ele>
        <time>2026-08-31T06:53:57Z</time>
      </trkpt>
      <trkpt lat="43.19022" lon="-1.3412">
        <ele>228.52</ele>
        <time>2026-08-31T06:54:15Z</time>
      </trkpt>
      <trkpt lat="43.19025" lon="-1.34125">
        <ele>228.36</ele>
        <time>2026-08-31T06:54:20Z</time>
      </trkpt>
      <trkpt lat="43.19035" lon="-1.34145">
        <ele>228.34</ele>
        <time>2026-08-31T06:54:40Z</time>
      </trkpt>
      <trkpt lat="43.19041" lon="-1.34152">
        <ele>228.73</ele>
        <time>2026-08-31T06:54:57Z</time>
      </trkpt>
      <trkpt lat="43.19052" lon="-1.34176">
        <ele>229.06</ele>
        <time>2026-08-31T06:55:21Z</time>
      </trkpt>
      <trkpt lat="43.19057" lon="-1.34187">
        <ele>228.55</ele>
        <time>2026-08-31T06:55:30Z</time>
      </trkpt>
      <trkpt lat="43.19057" lon="-1.3419">
        <ele>228.54</ele>
        <time>2026-08-31T06:55:32Z</time>
      </trkpt>
      <trkpt lat="43.19067" lon="-1.34215">
        <ele>228.07</ele>
        <time>2026-08-31T06:55:51Z</time>
      </trkpt>
      <trkpt lat="43.19073" lon="-1.34233">
        <ele>228.41</ele>
        <time>2026-08-31T06:56:06Z</time>
      </trkpt>
      <trkpt lat="43.19077" lon="-1.34246">
        <ele>229.04</ele>
        <time>2026-08-31T06:56:22Z</time>
      </trkpt>
      <trkpt lat="43.1908" lon="-1.34261">
        <ele>229.6</ele>
        <time>2026-08-31T06:56:44Z</time>
      </trkpt>
      <trkpt lat="43.1908" lon="-1.34265">
        <ele>229.86</ele>
        <time>2026-08-31T06:57:07Z</time>
      </trkpt>
      <trkpt lat="43.1908" lon="-1.34269">
        <ele>229.75</ele>
        <time>2026-08-31T06:57:32Z</time>
      </trkpt>
      <trkpt lat="43.19085" lon="-1.34289">
        <ele>228.4</ele>
        <time>2026-08-31T06:57:54Z</time>
      </trkpt>
      <trkpt lat="43.19089" lon="-1.34314">
        <ele>227.04</ele>
        <time>2026-08-31T06:58:15Z</time>
      </trkpt>
      <trkpt lat="43.19092" lon="-1.34329">
        <ele>226.34</ele>
        <time>2026-08-31T06:58:34Z</time>
      </trkpt>
      <trkpt lat="43.19095" lon="-1.34347">
        <ele>225.83</ele>
        <time>2026-08-31T06:58:54Z</time>
      </trkpt>
      <trkpt lat="43.19097" lon="-1.34372">
        <ele>224.61</ele>
        <time>2026-08-31T06:59:14Z</time>
      </trkpt>
      <trkpt lat="43.19104" lon="-1.34402">
        <ele>224.3</ele>
        <time>2026-08-31T06:59:38Z</time>
      </trkpt>
      <trkpt lat="43.19113" lon="-1.34428">
        <ele>224.86</ele>
        <time>2026-08-31T07:00:00Z</time>
      </trkpt>
      <trkpt lat="43.19118" lon="-1.34454">
        <ele>226.55</ele>
        <time>2026-08-31T07:00:21Z</time>
      </trkpt>
      <trkpt lat="43.19121" lon="-1.34467">
        <ele>227.53</ele>
        <time>2026-08-31T07:00:36Z</time>
      </trkpt>
      <trkpt lat="43.19123" lon="-1.34479">
        <ele>228.86</ele>
        <time>2026-08-31T07:00:56Z</time>
      </trkpt>
      <trkpt lat="43.19125" lon="-1.34494">
        <ele>230.34</ele>
        <time>2026-08-31T07:01:15Z</time>
      </trkpt>
      <trkpt lat="43.19127" lon="-1.3452">
        <ele>232.71</ele>
        <time>2026-08-31T07:01:36Z</time>
      </trkpt>
      <trkpt lat="43.19133" lon="-1.34546">
        <ele>234.48</ele>
        <time>2026-08-31T07:01:58Z</time>
      </trkpt>
      <trkpt lat="43.19143" lon="-1.34558">
        <ele>236.27</ele>
        <time>2026-08-31T07:02:18Z</time>
      </trkpt>
      <trkpt lat="43.19149" lon="-1.34564">
        <ele>237.22</ele>
        <time>2026-08-31T07:02:34Z</time>
      </trkpt>
      <trkpt lat="43.19156" lon="-1.34568">
        <ele>237.05</ele>
        <time>2026-08-31T07:02:43Z</time>
      </trkpt>
      <trkpt lat="43.19163" lon="-1.34575">
        <ele>236.62</ele>
        <time>2026-08-31T07:02:52Z</time>
      </trkpt>
      <trkpt lat="43.19175" lon="-1.34594">
        <ele>235.36</ele>
        <time>2026-08-31T07:03:11Z</time>
      </trkpt>
      <trkpt lat="43.19189" lon="-1.3461">
        <ele>234.63</ele>
        <time>2026-08-31T07:03:30Z</time>
      </trkpt>
      <trkpt lat="43.19198" lon="-1.34634">
        <ele>234.21</ele>
        <time>2026-08-31T07:03:51Z</time>
      </trkpt>
      <trkpt lat="43.19207" lon="-1.34659">
        <ele>235</ele>
        <time>2026-08-31T07:04:15Z</time>
      </trkpt>
      <trkpt lat="43.19211" lon="-1.34676">
        <ele>236</ele>
        <time>2026-08-31T07:04:33Z</time>
      </trkpt>
      <trkpt lat="43.19218" lon="-1.34692">
        <ele>237.86</ele>
        <time>2026-08-31T07:04:49Z</time>
      </trkpt>
      <trkpt lat="43.19234" lon="-1.34708">
        <ele>240.97</ele>
        <time>2026-08-31T07:05:10Z</time>
      </trkpt>
      <trkpt lat="43.19237" lon="-1.34715">
        <ele>241.44</ele>
        <time>2026-08-31T07:05:16Z</time>
      </trkpt>
      <trkpt lat="43.19244" lon="-1.34729">
        <ele>241.85</ele>
        <time>2026-08-31T07:05:36Z</time>
      </trkpt>
      <trkpt lat="43.19246" lon="-1.34734">
        <ele>242.42</ele>
        <time>2026-08-31T07:06:02Z</time>
      </trkpt>
      <trkpt lat="43.19252" lon="-1.3475">
        <ele>242.99</ele>
        <time>2026-08-31T07:06:21Z</time>
      </trkpt>
      <trkpt lat="43.19261" lon="-1.34776">
        <ele>244.82</ele>
        <time>2026-08-31T07:06:45Z</time>
      </trkpt>
      <trkpt lat="43.19265" lon="-1.34785">
        <ele>245.76</ele>
        <time>2026-08-31T07:07:03Z</time>
      </trkpt>
      <trkpt lat="43.19274" lon="-1.34807">
        <ele>246.34</ele>
        <time>2026-08-31T07:07:24Z</time>
      </trkpt>
      <trkpt lat="43.19283" lon="-1.34832">
        <ele>245.14</ele>
        <time>2026-08-31T07:07:47Z</time>
      </trkpt>
      <trkpt lat="43.19291" lon="-1.34856">
        <ele>244.35</ele>
        <time>2026-08-31T07:08:08Z</time>
      </trkpt>
      <trkpt lat="43.19301" lon="-1.34878">
        <ele>243.11</ele>
        <time>2026-08-31T07:08:29Z</time>
      </trkpt>
      <trkpt lat="43.19316" lon="-1.34903">
        <ele>242.27</ele>
        <time>2026-08-31T07:08:53Z</time>
      </trkpt>
      <trkpt lat="43.1933" lon="-1.34924">
        <ele>241.44</ele>
        <time>2026-08-31T07:09:16Z</time>
      </trkpt>
      <trkpt lat="43.19336" lon="-1.34934">
        <ele>241</ele>
        <time>2026-08-31T07:09:36Z</time>
      </trkpt>
      <trkpt lat="43.19341" lon="-1.34953">
        <ele>241.93</ele>
        <time>2026-08-31T07:09:55Z</time>
      </trkpt>
      <trkpt lat="43.19334" lon="-1.34967">
        <ele>243.07</ele>
        <time>2026-08-31T07:10:15Z</time>
      </trkpt>
      <trkpt lat="43.19331" lon="-1.3498">
        <ele>242.99</ele>
        <time>2026-08-31T07:10:28Z</time>
      </trkpt>
      <trkpt lat="43.19327" lon="-1.34996">
        <ele>242.62</ele>
        <time>2026-08-31T07:10:41Z</time>
      </trkpt>
      <trkpt lat="43.19323" lon="-1.35008">
        <ele>243.79</ele>
        <time>2026-08-31T07:11:00Z</time>
      </trkpt>
      <trkpt lat="43.19322" lon="-1.35014">
        <ele>244.57</ele>
        <time>2026-08-31T07:11:22Z</time>
      </trkpt>
      <trkpt lat="43.1932" lon="-1.35031">
        <ele>247.51</ele>
        <time>2026-08-31T07:11:41Z</time>
      </trkpt>
      <trkpt lat="43.19317" lon="-1.35037">
        <ele>247.68</ele>
        <time>2026-08-31T07:11:56Z</time>
      </trkpt>
      <trkpt lat="43.19312" lon="-1.35045">
        <ele>248.45</ele>
        <time>2026-08-31T07:12:10Z</time>
      </trkpt>
      <trkpt lat="43.19307" lon="-1.35051">
        <ele>249.68</ele>
        <time>2026-08-31T07:12:33Z</time>
      </trkpt>
      <trkpt lat="43.19299" lon="-1.35064">
        <ele>252.3</ele>
        <time>2026-08-31T07:12:51Z</time>
      </trkpt>
      <trkpt lat="43.19292" lon="-1.35076">
        <ele>254.51</ele>
        <time>2026-08-31T07:13:09Z</time>
      </trkpt>
      <trkpt lat="43.19286" lon="-1.35094">
        <ele>256.63</ele>
        <time>2026-08-31T07:13:28Z</time>
      </trkpt>
      <trkpt lat="43.19286" lon="-1.35114">
        <ele>257.77</ele>
        <time>2026-08-31T07:13:46Z</time>
      </trkpt>
      <trkpt lat="43.19289" lon="-1.3514">
        <ele>260.48</ele>
        <time>2026-08-31T07:14:12Z</time>
      </trkpt>
      <trkpt lat="43.1929" lon="-1.35161">
        <ele>261.87</ele>
        <time>2026-08-31T07:14:31Z</time>
      </trkpt>
      <trkpt lat="43.19294" lon="-1.35184">
        <ele>263.47</ele>
        <time>2026-08-31T07:14:57Z</time>
      </trkpt>
      <trkpt lat="43.19296" lon="-1.35203">
        <ele>264.72</ele>
        <time>2026-08-31T07:15:17Z</time>
      </trkpt>
      <trkpt lat="43.19302" lon="-1.35228">
        <ele>265.89</ele>
        <time>2026-08-31T07:15:42Z</time>
      </trkpt>
      <trkpt lat="43.19308" lon="-1.35246">
        <ele>268.12</ele>
        <time>2026-08-31T07:16:04Z</time>
      </trkpt>
      <trkpt lat="43.19314" lon="-1.35267">
        <ele>270.57</ele>
        <time>2026-08-31T07:16:26Z</time>
      </trkpt>
      <trkpt lat="43.19316" lon="-1.3528">
        <ele>270.84</ele>
        <time>2026-08-31T07:16:45Z</time>
      </trkpt>
      <trkpt lat="43.19316" lon="-1.35281">
        <ele>271.04</ele>
        <time>2026-08-31T07:17:09Z</time>
      </trkpt>
      <trkpt lat="43.19317" lon="-1.35282">
        <ele>270.97</ele>
        <time>2026-08-31T07:17:27Z</time>
      </trkpt>
      <trkpt lat="43.19318" lon="-1.35287">
        <ele>271.12</ele>
        <time>2026-08-31T07:17:49Z</time>
      </trkpt>
      <trkpt lat="43.19317" lon="-1.3529">
        <ele>270.86</ele>
        <time>2026-08-31T07:18:17Z</time>
      </trkpt>
      <trkpt lat="43.19317" lon="-1.35291">
        <ele>270.91</ele>
        <time>2026-08-31T07:18:37Z</time>
      </trkpt>
      <trkpt lat="43.19315" lon="-1.35289">
        <ele>270.84</ele>
        <time>2026-08-31T07:19:02Z</time>
      </trkpt>
      <trkpt lat="43.19315" lon="-1.35288">
        <ele>270.72</ele>
        <time>2026-08-31T07:19:34Z</time>
      </trkpt>
      <trkpt lat="43.19317" lon="-1.35284">
        <ele>270.52</ele>
        <time>2026-08-31T07:19:58Z</time>
      </trkpt>
      <trkpt lat="43.19317" lon="-1.35287">
        <ele>270.7</ele>
        <time>2026-08-31T07:20:30Z</time>
      </trkpt>
      <trkpt lat="43.19315" lon="-1.35308">
        <ele>271.11</ele>
        <time>2026-08-31T07:20:52Z</time>
      </trkpt>
      <trkpt lat="43.19323" lon="-1.35317">
        <ele>272.07</ele>
        <time>2026-08-31T07:21:11Z</time>
      </trkpt>
      <trkpt lat="43.19334" lon="-1.35332">
        <ele>274.28</ele>
        <time>2026-08-31T07:21:34Z</time>
      </trkpt>
      <trkpt lat="43.19346" lon="-1.3535">
        <ele>275.68</ele>
        <time>2026-08-31T07:21:54Z</time>
      </trkpt>
      <trkpt lat="43.19358" lon="-1.35363">
        <ele>276.22</ele>
        <time>2026-08-31T07:22:17Z</time>
      </trkpt>
      <trkpt lat="43.19372" lon="-1.35378">
        <ele>278.84</ele>
        <time>2026-08-31T07:22:42Z</time>
      </trkpt>
      <trkpt lat="43.19381" lon="-1.35393">
        <ele>279.05</ele>
        <time>2026-08-31T07:22:59Z</time>
      </trkpt>
      <trkpt lat="43.19393" lon="-1.35412">
        <ele>279.64</ele>
        <time>2026-08-31T07:23:21Z</time>
      </trkpt>
      <trkpt lat="43.19402" lon="-1.35431">
        <ele>278.45</ele>
        <time>2026-08-31T07:23:43Z</time>
      </trkpt>
      <trkpt lat="43.19413" lon="-1.35454">
        <ele>278.99</ele>
        <time>2026-08-31T07:24:07Z</time>
      </trkpt>
      <trkpt lat="43.19418" lon="-1.35478">
        <ele>279.03</ele>
        <time>2026-08-31T07:24:28Z</time>
      </trkpt>
      <trkpt lat="43.19422" lon="-1.35499">
        <ele>279.58</ele>
        <time>2026-08-31T07:24:49Z</time>
      </trkpt>
      <trkpt lat="43.19427" lon="-1.35519">
        <ele>279.7</ele>
        <time>2026-08-31T07:25:08Z</time>
      </trkpt>
      <trkpt lat="43.19431" lon="-1.3554">
        <ele>279.17</ele>
        <time>2026-08-31T07:25:26Z</time>
      </trkpt>
      <trkpt lat="43.1943" lon="-1.35559">
        <ele>278.25</ele>
        <time>2026-08-31T07:25:44Z</time>
      </trkpt>
      <trkpt lat="43.1943" lon="-1.35581">
        <ele>277.76</ele>
        <time>2026-08-31T07:26:02Z</time>
      </trkpt>
      <trkpt lat="43.19428" lon="-1.3561">
        <ele>278.11</ele>
        <time>2026-08-31T07:26:26Z</time>
      </trkpt>
      <trkpt lat="43.19422" lon="-1.35633">
        <ele>279.44</ele>
        <time>2026-08-31T07:26:48Z</time>
      </trkpt>
      <trkpt lat="43.19415" lon="-1.35662">
        <ele>281.22</ele>
        <time>2026-08-31T07:27:11Z</time>
      </trkpt>
      <trkpt lat="43.19412" lon="-1.35688">
        <ele>281.63</ele>
        <time>2026-08-31T07:27:35Z</time>
      </trkpt>
      <trkpt lat="43.19413" lon="-1.35714">
        <ele>281.09</ele>
        <time>2026-08-31T07:27:58Z</time>
      </trkpt>
      <trkpt lat="43.19411" lon="-1.35737">
        <ele>282.34</ele>
        <time>2026-08-31T07:28:21Z</time>
      </trkpt>
      <trkpt lat="43.19403" lon="-1.35754">
        <ele>282.78</ele>
        <time>2026-08-31T07:28:41Z</time>
      </trkpt>
      <trkpt lat="43.19401" lon="-1.35778">
        <ele>281.79</ele>
        <time>2026-08-31T07:29:03Z</time>
      </trkpt>
      <trkpt lat="43.19405" lon="-1.358">
        <ele>279.28</ele>
        <time>2026-08-31T07:29:24Z</time>
      </trkpt>
      <trkpt lat="43.19409" lon="-1.35819">
        <ele>278.57</ele>
        <time>2026-08-31T07:29:41Z</time>
      </trkpt>
      <trkpt lat="43.19413" lon="-1.35843">
        <ele>279.06</ele>
        <time>2026-08-31T07:30:03Z</time>
      </trkpt>
      <trkpt lat="43.19413" lon="-1.35846">
        <ele>279.23</ele>
        <time>2026-08-31T07:30:09Z</time>
      </trkpt>
      <trkpt lat="43.19415" lon="-1.35849">
        <ele>279.16</ele>
        <time>2026-08-31T07:30:35Z</time>
      </trkpt>
      <trkpt lat="43.19419" lon="-1.35849">
        <ele>279.27</ele>
        <time>2026-08-31T07:31:04Z</time>
      </trkpt>
      <trkpt lat="43.1942" lon="-1.35848">
        <ele>279.52</ele>
        <time>2026-08-31T07:31:29Z</time>
      </trkpt>
      <trkpt lat="43.19422" lon="-1.35851">
        <ele>279.73</ele>
        <time>2026-08-31T07:31:57Z</time>
      </trkpt>
      <trkpt lat="43.19417" lon="-1.35842">
        <ele>279.74</ele>
        <time>2026-08-31T07:32:26Z</time>
      </trkpt>
      <trkpt lat="43.19417" lon="-1.35841">
        <ele>279.76</ele>
        <time>2026-08-31T07:32:51Z</time>
      </trkpt>
      <trkpt lat="43.19418" lon="-1.35847">
        <ele>279.76</ele>
        <time>2026-08-31T07:33:16Z</time>
      </trkpt>
      <trkpt lat="43.19416" lon="-1.35846">
        <ele>279.81</ele>
        <time>2026-08-31T07:33:47Z</time>
      </trkpt>
      <trkpt lat="43.19413" lon="-1.35848">
        <ele>279.74</ele>
        <time>2026-08-31T07:34:08Z</time>
      </trkpt>
      <trkpt lat="43.19412" lon="-1.35846">
        <ele>279.86</ele>
        <time>2026-08-31T07:34:36Z</time>
      </trkpt>
      <trkpt lat="43.19414" lon="-1.35849">
        <ele>279.61</ele>
        <time>2026-08-31T07:35:05Z</time>
      </trkpt>
      <trkpt lat="43.1941" lon="-1.35855">
        <ele>279.64</ele>
        <time>2026-08-31T07:35:29Z</time>
      </trkpt>
      <trkpt lat="43.19413" lon="-1.35852">
        <ele>279.57</ele>
        <time>2026-08-31T07:35:59Z</time>
      </trkpt>
      <trkpt lat="43.19418" lon="-1.35853">
        <ele>279.51</ele>
        <time>2026-08-31T07:36:27Z</time>
      </trkpt>
      <trkpt lat="43.19417" lon="-1.35866">
        <ele>279.38</ele>
        <time>2026-08-31T07:36:49Z</time>
      </trkpt>
      <trkpt lat="43.19418" lon="-1.35895">
        <ele>280.8</ele>
        <time>2026-08-31T07:37:13Z</time>
      </trkpt>
      <trkpt lat="43.19422" lon="-1.3592">
        <ele>283.07</ele>
        <time>2026-08-31T07:37:38Z</time>
      </trkpt>
      <trkpt lat="43.19425" lon="-1.35946">
        <ele>285.58</ele>
        <time>2026-08-31T07:38:01Z</time>
      </trkpt>
      <trkpt lat="43.19429" lon="-1.3597">
        <ele>287.76</ele>
        <time>2026-08-31T07:38:24Z</time>
      </trkpt>
      <trkpt lat="43.19429" lon="-1.36">
        <ele>289.45</ele>
        <time>2026-08-31T07:38:49Z</time>
      </trkpt>
      <trkpt lat="43.19431" lon="-1.36026">
        <ele>289.16</ele>
        <time>2026-08-31T07:39:11Z</time>
      </trkpt>
      <trkpt lat="43.19432" lon="-1.36053">
        <ele>288.17</ele>
        <time>2026-08-31T07:39:35Z</time>
      </trkpt>
      <trkpt lat="43.19435" lon="-1.36078">
        <ele>287.86</ele>
        <time>2026-08-31T07:39:57Z</time>
      </trkpt>
      <trkpt lat="43.19433" lon="-1.36091">
        <ele>287.42</ele>
        <time>2026-08-31T07:40:19Z</time>
      </trkpt>
      <trkpt lat="43.19439" lon="-1.36094">
        <ele>287.54</ele>
        <time>2026-08-31T07:40:46Z</time>
      </trkpt>
      <trkpt lat="43.19439" lon="-1.36096">
        <ele>287.56</ele>
        <time>2026-08-31T07:41:18Z</time>
      </trkpt>
      <trkpt lat="43.19436" lon="-1.36104">
        <ele>287.54</ele>
        <time>2026-08-31T07:41:43Z</time>
      </trkpt>
      <trkpt lat="43.19428" lon="-1.36109">
        <ele>287.69</ele>
        <time>2026-08-31T07:42:13Z</time>
      </trkpt>
      <trkpt lat="43.19432" lon="-1.36107">
        <ele>287.69</ele>
        <time>2026-08-31T07:42:15Z</time>
      </trkpt>
      <trkpt lat="43.19436" lon="-1.36108">
        <ele>287.57</ele>
        <time>2026-08-31T07:42:45Z</time>
      </trkpt>
      <trkpt lat="43.19436" lon="-1.36108">
        <ele>287.67</ele>
        <time>2026-08-31T07:42:48Z</time>
      </trkpt>
      <trkpt lat="43.19436" lon="-1.36102">
        <ele>287.52</ele>
        <time>2026-08-31T07:43:15Z</time>
      </trkpt>
      <trkpt lat="43.19436" lon="-1.361">
        <ele>287.61</ele>
        <time>2026-08-31T07:43:28Z</time>
      </trkpt>
      <trkpt lat="43.19433" lon="-1.36096">
        <ele>287.56</ele>
        <time>2026-08-31T07:43:55Z</time>
      </trkpt>
      <trkpt lat="43.19434" lon="-1.36092">
        <ele>287.82</ele>
        <time>2026-08-31T07:44:23Z</time>
      </trkpt>
      <trkpt lat="43.19434" lon="-1.36091">
        <ele>287.47</ele>
        <time>2026-08-31T07:44:52Z</time>
      </trkpt>
      <trkpt lat="43.19434" lon="-1.36091">
        <ele>287.49</ele>
        <time>2026-08-31T07:45:23Z</time>
      </trkpt>
      <trkpt lat="43.19434" lon="-1.36093">
        <ele>287.54</ele>
        <time>2026-08-31T07:45:50Z</time>
      </trkpt>
      <trkpt lat="43.19441" lon="-1.36096">
        <ele>287.65</ele>
        <time>2026-08-31T07:46:18Z</time>
      </trkpt>
      <trkpt lat="43.19436" lon="-1.36093">
        <ele>285.62</ele>
        <time>2026-08-31T07:46:38Z</time>
      </trkpt>
      <trkpt lat="43.19431" lon="-1.3609">
        <ele>283.5</ele>
        <time>2026-08-31T07:46:59Z</time>
      </trkpt>
      <trkpt lat="43.19425" lon="-1.36087">
        <ele>281.67</ele>
        <time>2026-08-31T07:47:23Z</time>
      </trkpt>
      <trkpt lat="43.1942" lon="-1.36077">
        <ele>278.73</ele>
        <time>2026-08-31T07:47:48Z</time>
      </trkpt>
      <trkpt lat="43.19412" lon="-1.36069">
        <ele>277.98</ele>
        <time>2026-08-31T07:48:11Z</time>
      </trkpt>
      <trkpt lat="43.19407" lon="-1.36056">
        <ele>279.82</ele>
        <time>2026-08-31T07:48:31Z</time>
      </trkpt>
      <trkpt lat="43.19401" lon="-1.36042">
        <ele>282.96</ele>
        <time>2026-08-31T07:48:53Z</time>
      </trkpt>
      <trkpt lat="43.19397" lon="-1.36028">
        <ele>285.34</ele>
        <time>2026-08-31T07:49:15Z</time>
      </trkpt>
      <trkpt lat="43.19392" lon="-1.36018">
        <ele>286.82</ele>
        <time>2026-08-31T07:49:33Z</time>
      </trkpt>
      <trkpt lat="43.19388" lon="-1.36018">
        <ele>286.82</ele>
        <time>2026-08-31T07:49:57Z</time>
      </trkpt>
      <trkpt lat="43.19379" lon="-1.36006">
        <ele>287.97</ele>
        <time>2026-08-31T07:50:16Z</time>
      </trkpt>
      <trkpt lat="43.1937" lon="-1.35987">
        <ele>289.07</ele>
        <time>2026-08-31T07:50:39Z</time>
      </trkpt>
      <trkpt lat="43.19364" lon="-1.35966">
        <ele>289.97</ele>
        <time>2026-08-31T07:51:01Z</time>
      </trkpt>
      <trkpt lat="43.19362" lon="-1.35947">
        <ele>290.72</ele>
        <time>2026-08-31T07:51:21Z</time>
      </trkpt>
      <trkpt lat="43.19361" lon="-1.35921">
        <ele>290.84</ele>
        <time>2026-08-31T07:51:42Z</time>
      </trkpt>
      <trkpt lat="43.19356" lon="-1.35892">
        <ele>290.19</ele>
        <time>2026-08-31T07:52:06Z</time>
      </trkpt>
      <trkpt lat="43.19346" lon="-1.35865">
        <ele>290.13</ele>
        <time>2026-08-31T07:52:29Z</time>
      </trkpt>
      <trkpt lat="43.19339" lon="-1.35851">
        <ele>290.86</ele>
        <time>2026-08-31T07:52:47Z</time>
      </trkpt>
      <trkpt lat="43.19328" lon="-1.35834">
        <ele>290.93</ele>
        <time>2026-08-31T07:53:06Z</time>
      </trkpt>
      <trkpt lat="43.19321" lon="-1.35824">
        <ele>292.4</ele>
        <time>2026-08-31T07:53:28Z</time>
      </trkpt>
      <trkpt lat="43.19321" lon="-1.35806">
        <ele>295.23</ele>
        <time>2026-08-31T07:53:50Z</time>
      </trkpt>
      <trkpt lat="43.19318" lon="-1.35786">
        <ele>298.5</ele>
        <time>2026-08-31T07:54:09Z</time>
      </trkpt>
      <trkpt lat="43.19315" lon="-1.35772">
        <ele>301.62</ele>
        <time>2026-08-31T07:54:27Z</time>
      </trkpt>
      <trkpt lat="43.19309" lon="-1.35762">
        <ele>303.12</ele>
        <time>2026-08-31T07:54:51Z</time>
      </trkpt>
      <trkpt lat="43.19305" lon="-1.35754">
        <ele>304.22</ele>
        <time>2026-08-31T07:55:13Z</time>
      </trkpt>
      <trkpt lat="43.19303" lon="-1.35741">
        <ele>306.68</ele>
        <time>2026-08-31T07:55:35Z</time>
      </trkpt>
      <trkpt lat="43.19298" lon="-1.35725">
        <ele>309.77</ele>
        <time>2026-08-31T07:55:57Z</time>
      </trkpt>
      <trkpt lat="43.19295" lon="-1.35707">
        <ele>312.86</ele>
        <time>2026-08-31T07:56:18Z</time>
      </trkpt>
      <trkpt lat="43.19292" lon="-1.35685">
        <ele>315.86</ele>
        <time>2026-08-31T07:56:41Z</time>
      </trkpt>
      <trkpt lat="43.19289" lon="-1.35671">
        <ele>317.97</ele>
        <time>2026-08-31T07:57:02Z</time>
      </trkpt>
      <trkpt lat="43.19286" lon="-1.35665">
        <ele>318.57</ele>
        <time>2026-08-31T07:57:26Z</time>
      </trkpt>
      <trkpt lat="43.19288" lon="-1.35655">
        <ele>318.63</ele>
        <time>2026-08-31T07:57:49Z</time>
      </trkpt>
      <trkpt lat="43.19286" lon="-1.35632">
        <ele>318.01</ele>
        <time>2026-08-31T07:58:10Z</time>
      </trkpt>
      <trkpt lat="43.19281" lon="-1.35615">
        <ele>317.23</ele>
        <time>2026-08-31T07:58:27Z</time>
      </trkpt>
      <trkpt lat="43.19276" lon="-1.35597">
        <ele>315.72</ele>
        <time>2026-08-31T07:58:47Z</time>
      </trkpt>
      <trkpt lat="43.19271" lon="-1.35579">
        <ele>314.77</ele>
        <time>2026-08-31T07:59:05Z</time>
      </trkpt>
      <trkpt lat="43.19262" lon="-1.35551">
        <ele>314.95</ele>
        <time>2026-08-31T07:59:28Z</time>
      </trkpt>
      <trkpt lat="43.19246" lon="-1.35532">
        <ele>314.51</ele>
        <time>2026-08-31T07:59:51Z</time>
      </trkpt>
      <trkpt lat="43.1923" lon="-1.35519">
        <ele>317.63</ele>
        <time>2026-08-31T08:00:11Z</time>
      </trkpt>
      <trkpt lat="43.19219" lon="-1.3551">
        <ele>320.56</ele>
        <time>2026-08-31T08:00:30Z</time>
      </trkpt>
      <trkpt lat="43.19208" lon="-1.35501">
        <ele>323.56</ele>
        <time>2026-08-31T08:00:48Z</time>
      </trkpt>
      <trkpt lat="43.19208" lon="-1.35494">
        <ele>325.03</ele>
        <time>2026-08-31T08:01:11Z</time>
      </trkpt>
      <trkpt lat="43.19195" lon="-1.35484">
        <ele>327.91</ele>
        <time>2026-08-31T08:01:32Z</time>
      </trkpt>
      <trkpt lat="43.19188" lon="-1.35472">
        <ele>328.28</ele>
        <time>2026-08-31T08:01:52Z</time>
      </trkpt>
      <trkpt lat="43.19184" lon="-1.35462">
        <ele>327.87</ele>
        <time>2026-08-31T08:02:12Z</time>
      </trkpt>
      <trkpt lat="43.19173" lon="-1.35446">
        <ele>327.33</ele>
        <time>2026-08-31T08:02:32Z</time>
      </trkpt>
      <trkpt lat="43.19161" lon="-1.3543">
        <ele>326.66</ele>
        <time>2026-08-31T08:02:53Z</time>
      </trkpt>
      <trkpt lat="43.19152" lon="-1.3541">
        <ele>326.78</ele>
        <time>2026-08-31T08:03:11Z</time>
      </trkpt>
      <trkpt lat="43.19149" lon="-1.35399">
        <ele>327</ele>
        <time>2026-08-31T08:03:28Z</time>
      </trkpt>
      <trkpt lat="43.19141" lon="-1.3538">
        <ele>327.72</ele>
        <time>2026-08-31T08:03:45Z</time>
      </trkpt>
      <trkpt lat="43.1913" lon="-1.35352">
        <ele>327.94</ele>
        <time>2026-08-31T08:04:07Z</time>
      </trkpt>
      <trkpt lat="43.19111" lon="-1.35334">
        <ele>327.05</ele>
        <time>2026-08-31T08:04:29Z</time>
      </trkpt>
      <trkpt lat="43.19098" lon="-1.35325">
        <ele>326.04</ele>
        <time>2026-08-31T08:04:51Z</time>
      </trkpt>
      <trkpt lat="43.19082" lon="-1.35312">
        <ele>325.95</ele>
        <time>2026-08-31T08:05:11Z</time>
      </trkpt>
      <trkpt lat="43.19078" lon="-1.35308">
        <ele>325.87</ele>
        <time>2026-08-31T08:05:16Z</time>
      </trkpt>
      <trkpt lat="43.19074" lon="-1.35304">
        <ele>325.84</ele>
        <time>2026-08-31T08:05:19Z</time>
      </trkpt>
      <trkpt lat="43.19058" lon="-1.35299">
        <ele>326.92</ele>
        <time>2026-08-31T08:05:33Z</time>
      </trkpt>
      <trkpt lat="43.19051" lon="-1.35289">
        <ele>325.93</ele>
        <time>2026-08-31T08:05:52Z</time>
      </trkpt>
      <trkpt lat="43.19036" lon="-1.35277">
        <ele>323.71</ele>
        <time>2026-08-31T08:06:14Z</time>
      </trkpt>
      <trkpt lat="43.19022" lon="-1.35263">
        <ele>322.11</ele>
        <time>2026-08-31T08:06:33Z</time>
      </trkpt>
      <trkpt lat="43.19015" lon="-1.35248">
        <ele>321.25</ele>
        <time>2026-08-31T08:06:49Z</time>
      </trkpt>
      <trkpt lat="43.18999" lon="-1.35221">
        <ele>320.07</ele>
        <time>2026-08-31T08:07:12Z</time>
      </trkpt>
      <trkpt lat="43.18991" lon="-1.35197">
        <ele>319.71</ele>
        <time>2026-08-31T08:07:32Z</time>
      </trkpt>
      <trkpt lat="43.18989" lon="-1.35181">
        <ele>319.55</ele>
        <time>2026-08-31T08:07:50Z</time>
      </trkpt>
      <trkpt lat="43.18985" lon="-1.35149">
        <ele>318.03</ele>
        <time>2026-08-31T08:08:16Z</time>
      </trkpt>
      <trkpt lat="43.18983" lon="-1.35142">
        <ele>316.48</ele>
        <time>2026-08-31T08:08:34Z</time>
      </trkpt>
      <trkpt lat="43.18983" lon="-1.35136">
        <ele>315.38</ele>
        <time>2026-08-31T08:08:57Z</time>
      </trkpt>
      <trkpt lat="43.18979" lon="-1.35117">
        <ele>313.41</ele>
        <time>2026-08-31T08:09:15Z</time>
      </trkpt>
      <trkpt lat="43.1897" lon="-1.35101">
        <ele>312.45</ele>
        <time>2026-08-31T08:09:31Z</time>
      </trkpt>
      <trkpt lat="43.18964" lon="-1.35091">
        <ele>311.8</ele>
        <time>2026-08-31T08:09:49Z</time>
      </trkpt>
      <trkpt lat="43.1896" lon="-1.35087">
        <ele>311.87</ele>
        <time>2026-08-31T08:10:11Z</time>
      </trkpt>
      <trkpt lat="43.18956" lon="-1.35085">
        <ele>311.7</ele>
        <time>2026-08-31T08:10:35Z</time>
      </trkpt>
      <trkpt lat="43.18943" lon="-1.35082">
        <ele>311.01</ele>
        <time>2026-08-31T08:10:48Z</time>
      </trkpt>
      <trkpt lat="43.18935" lon="-1.3508">
        <ele>310.94</ele>
        <time>2026-08-31T08:10:57Z</time>
      </trkpt>
      <trkpt lat="43.18928" lon="-1.35074">
        <ele>310.48</ele>
        <time>2026-08-31T08:11:12Z</time>
      </trkpt>
      <trkpt lat="43.18918" lon="-1.35061">
        <ele>309.7</ele>
        <time>2026-08-31T08:11:30Z</time>
      </trkpt>
      <trkpt lat="43.18908" lon="-1.35047">
        <ele>308.55</ele>
        <time>2026-08-31T08:11:50Z</time>
      </trkpt>
      <trkpt lat="43.18907" lon="-1.35047">
        <ele>308.71</ele>
        <time>2026-08-31T08:11:51Z</time>
      </trkpt>
      <trkpt lat="43.18886" lon="-1.35038">
        <ele>307.58</ele>
        <time>2026-08-31T08:12:13Z</time>
      </trkpt>
      <trkpt lat="43.18875" lon="-1.35036">
        <ele>306.9</ele>
        <time>2026-08-31T08:12:26Z</time>
      </trkpt>
      <trkpt lat="43.18853" lon="-1.35036">
        <ele>306.24</ele>
        <time>2026-08-31T08:12:50Z</time>
      </trkpt>
      <trkpt lat="43.18838" lon="-1.35042">
        <ele>305.9</ele>
        <time>2026-08-31T08:13:07Z</time>
      </trkpt>
      <trkpt lat="43.18824" lon="-1.35055">
        <ele>305</ele>
        <time>2026-08-31T08:13:27Z</time>
      </trkpt>
      <trkpt lat="43.18806" lon="-1.35074">
        <ele>303.69</ele>
        <time>2026-08-31T08:13:51Z</time>
      </trkpt>
      <trkpt lat="43.18791" lon="-1.35093">
        <ele>302.41</ele>
        <time>2026-08-31T08:14:12Z</time>
      </trkpt>
      <trkpt lat="43.1878" lon="-1.35113">
        <ele>300.8</ele>
        <time>2026-08-31T08:14:34Z</time>
      </trkpt>
      <trkpt lat="43.1877" lon="-1.35132">
        <ele>300.41</ele>
        <time>2026-08-31T08:14:53Z</time>
      </trkpt>
      <trkpt lat="43.18759" lon="-1.35138">
        <ele>300.28</ele>
        <time>2026-08-31T08:15:07Z</time>
      </trkpt>
      <trkpt lat="43.18749" lon="-1.35135">
        <ele>299.67</ele>
        <time>2026-08-31T08:15:24Z</time>
      </trkpt>
      <trkpt lat="43.18748" lon="-1.35133">
        <ele>299.44</ele>
        <time>2026-08-31T08:15:37Z</time>
      </trkpt>
      <trkpt lat="43.18743" lon="-1.35126">
        <ele>298.81</ele>
        <time>2026-08-31T08:15:49Z</time>
      </trkpt>
      <trkpt lat="43.18735" lon="-1.35118">
        <ele>297.84</ele>
        <time>2026-08-31T08:16:05Z</time>
      </trkpt>
      <trkpt lat="43.18725" lon="-1.35112">
        <ele>296.32</ele>
        <time>2026-08-31T08:16:18Z</time>
      </trkpt>
      <trkpt lat="43.1871" lon="-1.35104">
        <ele>294.17</ele>
        <time>2026-08-31T08:16:38Z</time>
      </trkpt>
      <trkpt lat="43.18694" lon="-1.35101">
        <ele>291.83</ele>
        <time>2026-08-31T08:16:58Z</time>
      </trkpt>
      <trkpt lat="43.18683" lon="-1.35095">
        <ele>290.88</ele>
        <time>2026-08-31T08:17:14Z</time>
      </trkpt>
      <trkpt lat="43.18673" lon="-1.35089">
        <ele>289.07</ele>
        <time>2026-08-31T08:17:31Z</time>
      </trkpt>
      <trkpt lat="43.18664" lon="-1.35083">
        <ele>287.76</ele>
        <time>2026-08-31T08:17:53Z</time>
      </trkpt>
      <trkpt lat="43.18658" lon="-1.35071">
        <ele>285.27</ele>
        <time>2026-08-31T08:18:15Z</time>
      </trkpt>
      <trkpt lat="43.18655" lon="-1.3506">
        <ele>282.95</ele>
        <time>2026-08-31T08:18:35Z</time>
      </trkpt>
      <trkpt lat="43.18648" lon="-1.35053">
        <ele>280.76</ele>
        <time>2026-08-31T08:18:54Z</time>
      </trkpt>
      <trkpt lat="43.18638" lon="-1.35038">
        <ele>278.13</ele>
        <time>2026-08-31T08:19:17Z</time>
      </trkpt>
      <trkpt lat="43.18631" lon="-1.35027">
        <ele>275.74</ele>
        <time>2026-08-31T08:19:40Z</time>
      </trkpt>
      <trkpt lat="43.18629" lon="-1.35016">
        <ele>274.58</ele>
        <time>2026-08-31T08:19:58Z</time>
      </trkpt>
      <trkpt lat="43.18626" lon="-1.35011">
        <ele>272.72</ele>
        <time>2026-08-31T08:20:19Z</time>
      </trkpt>
      <trkpt lat="43.18624" lon="-1.35002">
        <ele>270.32</ele>
        <time>2026-08-31T08:20:37Z</time>
      </trkpt>
      <trkpt lat="43.1862" lon="-1.34995">
        <ele>268.34</ele>
        <time>2026-08-31T08:21:01Z</time>
      </trkpt>
      <trkpt lat="43.18615" lon="-1.34984">
        <ele>266.24</ele>
        <time>2026-08-31T08:21:22Z</time>
      </trkpt>
      <trkpt lat="43.1861" lon="-1.34967">
        <ele>264.06</ele>
        <time>2026-08-31T08:21:41Z</time>
      </trkpt>
      <trkpt lat="43.18606" lon="-1.3496">
        <ele>262.06</ele>
        <time>2026-08-31T08:22:01Z</time>
      </trkpt>
      <trkpt lat="43.18604" lon="-1.34957">
        <ele>260.59</ele>
        <time>2026-08-31T08:22:29Z</time>
      </trkpt>
      <trkpt lat="43.18598" lon="-1.34955">
        <ele>258.51</ele>
        <time>2026-08-31T08:22:45Z</time>
      </trkpt>
      <trkpt lat="43.18596" lon="-1.34955">
        <ele>258.16</ele>
        <time>2026-08-31T08:22:48Z</time>
      </trkpt>
      <trkpt lat="43.1859" lon="-1.34946">
        <ele>256.77</ele>
        <time>2026-08-31T08:23:06Z</time>
      </trkpt>
      <trkpt lat="43.18588" lon="-1.3494">
        <ele>256</ele>
        <time>2026-08-31T08:23:24Z</time>
      </trkpt>
      <trkpt lat="43.18589" lon="-1.34932">
        <ele>255.38</ele>
        <time>2026-08-31T08:23:54Z</time>
      </trkpt>
      <trkpt lat="43.18587" lon="-1.34916">
        <ele>254.89</ele>
        <time>2026-08-31T08:24:11Z</time>
      </trkpt>
      <trkpt lat="43.18587" lon="-1.34909">
        <ele>255.03</ele>
        <time>2026-08-31T08:24:34Z</time>
      </trkpt>
      <trkpt lat="43.18581" lon="-1.34874">
        <ele>255.07</ele>
        <time>2026-08-31T08:24:59Z</time>
      </trkpt>
      <trkpt lat="43.18587" lon="-1.34842">
        <ele>254.84</ele>
        <time>2026-08-31T08:25:23Z</time>
      </trkpt>
      <trkpt lat="43.18596" lon="-1.34818">
        <ele>254.04</ele>
        <time>2026-08-31T08:25:43Z</time>
      </trkpt>
      <trkpt lat="43.18609" lon="-1.34793">
        <ele>253.08</ele>
        <time>2026-08-31T08:26:05Z</time>
      </trkpt>
      <trkpt lat="43.18626" lon="-1.34768">
        <ele>251.9</ele>
        <time>2026-08-31T08:26:31Z</time>
      </trkpt>
      <trkpt lat="43.18645" lon="-1.34745">
        <ele>250.65</ele>
        <time>2026-08-31T08:26:57Z</time>
      </trkpt>
      <trkpt lat="43.18665" lon="-1.34723">
        <ele>250.18</ele>
        <time>2026-08-31T08:27:24Z</time>
      </trkpt>
      <trkpt lat="43.18683" lon="-1.34703">
        <ele>249.04</ele>
        <time>2026-08-31T08:27:48Z</time>
      </trkpt>
      <trkpt lat="43.18699" lon="-1.34685">
        <ele>247.52</ele>
        <time>2026-08-31T08:28:10Z</time>
      </trkpt>
      <trkpt lat="43.18709" lon="-1.3467">
        <ele>246.1</ele>
        <time>2026-08-31T08:28:28Z</time>
      </trkpt>
      <trkpt lat="43.18721" lon="-1.34653">
        <ele>244.34</ele>
        <time>2026-08-31T08:28:48Z</time>
      </trkpt>
      <trkpt lat="43.18732" lon="-1.34637">
        <ele>242.12</ele>
        <time>2026-08-31T08:29:10Z</time>
      </trkpt>
      <trkpt lat="43.18733" lon="-1.34617">
        <ele>240.06</ele>
        <time>2026-08-31T08:29:33Z</time>
      </trkpt>
      <trkpt lat="43.18737" lon="-1.34606">
        <ele>239.63</ele>
        <time>2026-08-31T08:29:53Z</time>
      </trkpt>
      <trkpt lat="43.18738" lon="-1.34601">
        <ele>239.7</ele>
        <time>2026-08-31T08:30:33Z</time>
      </trkpt>
      <trkpt lat="43.18737" lon="-1.34592">
        <ele>239.23</ele>
        <time>2026-08-31T08:31:25Z</time>
      </trkpt>
      <trkpt lat="43.18736" lon="-1.34585">
        <ele>238.81</ele>
        <time>2026-08-31T08:31:30Z</time>
      </trkpt>
      <trkpt lat="43.18731" lon="-1.34558">
        <ele>237.57</ele>
        <time>2026-08-31T08:31:50Z</time>
      </trkpt>
      <trkpt lat="43.18722" lon="-1.34535">
        <ele>237.09</ele>
        <time>2026-08-31T08:32:09Z</time>
      </trkpt>
      <trkpt lat="43.18714" lon="-1.34518">
        <ele>235.33</ele>
        <time>2026-08-31T08:32:33Z</time>
      </trkpt>
      <trkpt lat="43.18716" lon="-1.34498">
        <ele>233.65</ele>
        <time>2026-08-31T08:32:51Z</time>
      </trkpt>
      <trkpt lat="43.18717" lon="-1.34473">
        <ele>231.52</ele>
        <time>2026-08-31T08:33:13Z</time>
      </trkpt>
      <trkpt lat="43.18708" lon="-1.34455">
        <ele>230</ele>
        <time>2026-08-31T08:33:32Z</time>
      </trkpt>
      <trkpt lat="43.18701" lon="-1.34433">
        <ele>229.2</ele>
        <time>2026-08-31T08:33:51Z</time>
      </trkpt>
      <trkpt lat="43.18699" lon="-1.34417">
        <ele>228.87</ele>
        <time>2026-08-31T08:34:08Z</time>
      </trkpt>
      <trkpt lat="43.18698" lon="-1.34415">
        <ele>228.72</ele>
        <time>2026-08-31T08:34:10Z</time>
      </trkpt>
      <trkpt lat="43.18696" lon="-1.34403">
        <ele>228.51</ele>
        <time>2026-08-31T08:34:20Z</time>
      </trkpt>
      <trkpt lat="43.18693" lon="-1.34383">
        <ele>228.27</ele>
        <time>2026-08-31T08:34:36Z</time>
      </trkpt>
      <trkpt lat="43.18683" lon="-1.34359">
        <ele>227.49</ele>
        <time>2026-08-31T08:34:58Z</time>
      </trkpt>
      <trkpt lat="43.1867" lon="-1.34343">
        <ele>224.59</ele>
        <time>2026-08-31T08:35:19Z</time>
      </trkpt>
      <trkpt lat="43.18666" lon="-1.3432">
        <ele>221.57</ele>
        <time>2026-08-31T08:35:41Z</time>
      </trkpt>
      <trkpt lat="43.18664" lon="-1.34299">
        <ele>218.85</ele>
        <time>2026-08-31T08:36:01Z</time>
      </trkpt>
      <trkpt lat="43.18662" lon="-1.34282">
        <ele>216.57</ele>
        <time>2026-08-31T08:36:19Z</time>
      </trkpt>
      <trkpt lat="43.18662" lon="-1.34267">
        <ele>214.23</ele>
        <time>2026-08-31T08:36:42Z</time>
      </trkpt>
      <trkpt lat="43.18665" lon="-1.34253">
        <ele>211.52</ele>
        <time>2026-08-31T08:37:02Z</time>
      </trkpt>
      <trkpt lat="43.18668" lon="-1.34233">
        <ele>208.66</ele>
        <time>2026-08-31T08:37:26Z</time>
      </trkpt>
      <trkpt lat="43.18667" lon="-1.34207">
        <ele>205.6</ele>
        <time>2026-08-31T08:37:52Z</time>
      </trkpt>
      <trkpt lat="43.18665" lon="-1.3419">
        <ele>202.5</ele>
        <time>2026-08-31T08:38:14Z</time>
      </trkpt>
      <trkpt lat="43.18663" lon="-1.34168">
        <ele>199.69</ele>
        <time>2026-08-31T08:38:38Z</time>
      </trkpt>
      <trkpt lat="43.18659" lon="-1.34146">
        <ele>196.86</ele>
        <time>2026-08-31T08:39:01Z</time>
      </trkpt>
      <trkpt lat="43.18652" lon="-1.34123">
        <ele>194.32</ele>
        <time>2026-08-31T08:39:22Z</time>
      </trkpt>
      <trkpt lat="43.18644" lon="-1.34106">
        <ele>191.32</ele>
        <time>2026-08-31T08:39:43Z</time>
      </trkpt>
      <trkpt lat="43.18635" lon="-1.34091">
        <ele>188.34</ele>
        <time>2026-08-31T08:40:02Z</time>
      </trkpt>
      <trkpt lat="43.18628" lon="-1.34074">
        <ele>185.41</ele>
        <time>2026-08-31T08:40:25Z</time>
      </trkpt>
      <trkpt lat="43.18623" lon="-1.34052">
        <ele>183.2</ele>
        <time>2026-08-31T08:40:47Z</time>
      </trkpt>
      <trkpt lat="43.18614" lon="-1.34024">
        <ele>181.2</ele>
        <time>2026-08-31T08:41:13Z</time>
      </trkpt>
      <trkpt lat="43.18603" lon="-1.34008">
        <ele>178.29</ele>
        <time>2026-08-31T08:41:34Z</time>
      </trkpt>
      <trkpt lat="43.18598" lon="-1.34002">
        <ele>177.34</ele>
        <time>2026-08-31T08:41:58Z</time>
      </trkpt>
      <trkpt lat="43.18594" lon="-1.33998">
        <ele>177.18</ele>
        <time>2026-08-31T08:42:26Z</time>
      </trkpt>
      <trkpt lat="43.18593" lon="-1.33996">
        <ele>176.88</ele>
        <time>2026-08-31T08:42:51Z</time>
      </trkpt>
      <trkpt lat="43.1859" lon="-1.33995">
        <ele>176.88</ele>
        <time>2026-08-31T08:43:13Z</time>
      </trkpt>
      <trkpt lat="43.18587" lon="-1.33987">
        <ele>175.92</ele>
        <time>2026-08-31T08:43:35Z</time>
      </trkpt>
      <trkpt lat="43.18584" lon="-1.33967">
        <ele>173.62</ele>
        <time>2026-08-31T08:43:54Z</time>
      </trkpt>
      <trkpt lat="43.18582" lon="-1.33948">
        <ele>171.38</ele>
        <time>2026-08-31T08:44:14Z</time>
      </trkpt>
      <trkpt lat="43.18583" lon="-1.33928">
        <ele>169.08</ele>
        <time>2026-08-31T08:44:34Z</time>
      </trkpt>
      <trkpt lat="43.18582" lon="-1.33912">
        <ele>165.99</ele>
        <time>2026-08-31T08:44:53Z</time>
      </trkpt>
      <trkpt lat="43.18581" lon="-1.33894">
        <ele>163.57</ele>
        <time>2026-08-31T08:45:10Z</time>
      </trkpt>
      <trkpt lat="43.18578" lon="-1.3387">
        <ele>160.53</ele>
        <time>2026-08-31T08:45:32Z</time>
      </trkpt>
      <trkpt lat="43.18578" lon="-1.33859">
        <ele>159.48</ele>
        <time>2026-08-31T08:45:51Z</time>
      </trkpt>
      <trkpt lat="43.18576" lon="-1.33849">
        <ele>159.01</ele>
        <time>2026-08-31T08:46:02Z</time>
      </trkpt>
      <trkpt lat="43.18575" lon="-1.33848">
        <ele>158.82</ele>
        <time>2026-08-31T08:46:03Z</time>
      </trkpt>
      <trkpt lat="43.18574" lon="-1.33846">
        <ele>158.68</ele>
        <time>2026-08-31T08:46:05Z</time>
      </trkpt>
      <trkpt lat="43.1857" lon="-1.33823">
        <ele>159.06</ele>
        <time>2026-08-31T08:46:24Z</time>
      </trkpt>
      <trkpt lat="43.18569" lon="-1.3382">
        <ele>159.1</ele>
        <time>2026-08-31T08:46:26Z</time>
      </trkpt>
      <trkpt lat="43.18568" lon="-1.33798">
        <ele>159.64</ele>
        <time>2026-08-31T08:46:43Z</time>
      </trkpt>
      <trkpt lat="43.18566" lon="-1.3378">
        <ele>159.48</ele>
        <time>2026-08-31T08:46:56Z</time>
      </trkpt>
      <trkpt lat="43.18562" lon="-1.33764">
        <ele>159.87</ele>
        <time>2026-08-31T08:47:09Z</time>
      </trkpt>
      <trkpt lat="43.18551" lon="-1.33744">
        <ele>160.43</ele>
        <time>2026-08-31T08:47:31Z</time>
      </trkpt>
      <trkpt lat="43.18551" lon="-1.33731">
        <ele>161.46</ele>
        <time>2026-08-31T08:47:47Z</time>
      </trkpt>
      <trkpt lat="43.18552" lon="-1.33712">
        <ele>162.75</ele>
        <time>2026-08-31T08:48:02Z</time>
      </trkpt>
      <trkpt lat="43.18552" lon="-1.33697">
        <ele>162.95</ele>
        <time>2026-08-31T08:48:19Z</time>
      </trkpt>
      <trkpt lat="43.18551" lon="-1.33678">
        <ele>161.52</ele>
        <time>2026-08-31T08:48:35Z</time>
      </trkpt>
      <trkpt lat="43.18544" lon="-1.33658">
        <ele>160.05</ele>
        <time>2026-08-31T08:48:56Z</time>
      </trkpt>
      <trkpt lat="43.18539" lon="-1.33648">
        <ele>157.11</ele>
        <time>2026-08-31T08:49:14Z</time>
      </trkpt>
      <trkpt lat="43.18533" lon="-1.33638">
        <ele>154.7</ele>
        <time>2026-08-31T08:49:32Z</time>
      </trkpt>
      <trkpt lat="43.18516" lon="-1.33644">
        <ele>152.44</ele>
        <time>2026-08-31T08:49:53Z</time>
      </trkpt>
      <trkpt lat="43.18502" lon="-1.33636">
        <ele>151.25</ele>
        <time>2026-08-31T08:50:13Z</time>
      </trkpt>
      <trkpt lat="43.18498" lon="-1.33635">
        <ele>151.19</ele>
        <time>2026-08-31T08:50:18Z</time>
      </trkpt>
      <trkpt lat="43.18495" lon="-1.33636">
        <ele>151.11</ele>
        <time>2026-08-31T08:50:21Z</time>
      </trkpt>
      <trkpt lat="43.18485" lon="-1.33645">
        <ele>151.19</ele>
        <time>2026-08-31T08:50:35Z</time>
      </trkpt>
      <trkpt lat="43.18474" lon="-1.33651">
        <ele>151.66</ele>
        <time>2026-08-31T08:50:50Z</time>
      </trkpt>
      <trkpt lat="43.18467" lon="-1.33658">
        <ele>151.61</ele>
        <time>2026-08-31T08:51:06Z</time>
      </trkpt>
      <trkpt lat="43.18452" lon="-1.33663">
        <ele>151.05</ele>
        <time>2026-08-31T08:51:29Z</time>
      </trkpt>
      <trkpt lat="43.18448" lon="-1.33665">
        <ele>150.87</ele>
        <time>2026-08-31T08:51:33Z</time>
      </trkpt>
      <trkpt lat="43.18436" lon="-1.33674">
        <ele>150.97</ele>
        <time>2026-08-31T08:51:48Z</time>
      </trkpt>
      <trkpt lat="43.18427" lon="-1.3368">
        <ele>151.12</ele>
        <time>2026-08-31T08:51:59Z</time>
      </trkpt>
      <trkpt lat="43.18411" lon="-1.33687">
        <ele>150.94</ele>
        <time>2026-08-31T08:52:15Z</time>
      </trkpt>
      <trkpt lat="43.18395" lon="-1.33692">
        <ele>151.15</ele>
        <time>2026-08-31T08:52:34Z</time>
      </trkpt>
      <trkpt lat="43.18377" lon="-1.33693">
        <ele>151.44</ele>
        <time>2026-08-31T08:52:52Z</time>
      </trkpt>
      <trkpt lat="43.18358" lon="-1.33685">
        <ele>152.1</ele>
        <time>2026-08-31T08:53:12Z</time>
      </trkpt>
      <trkpt lat="43.18336" lon="-1.33674">
        <ele>151.99</ele>
        <time>2026-08-31T08:53:36Z</time>
      </trkpt>
      <trkpt lat="43.18323" lon="-1.33671">
        <ele>152.33</ele>
        <time>2026-08-31T08:53:53Z</time>
      </trkpt>
      <trkpt lat="43.18296" lon="-1.33668">
        <ele>152.85</ele>
        <time>2026-08-31T08:54:20Z</time>
      </trkpt>
      <trkpt lat="43.18292" lon="-1.33669">
        <ele>152.86</ele>
        <time>2026-08-31T08:54:25Z</time>
      </trkpt>
      <trkpt lat="43.18279" lon="-1.3367">
        <ele>153.12</ele>
        <time>2026-08-31T08:54:42Z</time>
      </trkpt>
      <trkpt lat="43.18258" lon="-1.33672">
        <ele>153.76</ele>
        <time>2026-08-31T08:55:04Z</time>
      </trkpt>
      <trkpt lat="43.18254" lon="-1.33666">
        <ele>154.03</ele>
        <time>2026-08-31T08:55:10Z</time>
      </trkpt>
      <trkpt lat="43.18252" lon="-1.33631">
        <ele>154.4</ele>
        <time>2026-08-31T08:55:36Z</time>
      </trkpt>
      <trkpt lat="43.18251" lon="-1.33628">
        <ele>154.26</ele>
        <time>2026-08-31T08:55:39Z</time>
      </trkpt>
      <trkpt lat="43.18249" lon="-1.33627">
        <ele>154.4</ele>
        <time>2026-08-31T08:55:41Z</time>
      </trkpt>
      <trkpt lat="43.18244" lon="-1.33598">
        <ele>153.78</ele>
        <time>2026-08-31T08:56:06Z</time>
      </trkpt>
      <trkpt lat="43.18244" lon="-1.33581">
        <ele>153.17</ele>
        <time>2026-08-31T08:56:30Z</time>
      </trkpt>
      <trkpt lat="43.18241" lon="-1.3356">
        <ele>153.16</ele>
        <time>2026-08-31T08:56:49Z</time>
      </trkpt>
      <trkpt lat="43.18241" lon="-1.3354">
        <ele>152.71</ele>
        <time>2026-08-31T08:57:06Z</time>
      </trkpt>
      <trkpt lat="43.1824" lon="-1.33538">
        <ele>152.48</ele>
        <time>2026-08-31T08:57:08Z</time>
      </trkpt>
      <trkpt lat="43.1824" lon="-1.33531">
        <ele>152.14</ele>
        <time>2026-08-31T08:57:13Z</time>
      </trkpt>
      <trkpt lat="43.18249" lon="-1.33509">
        <ele>151.97</ele>
        <time>2026-08-31T08:57:34Z</time>
      </trkpt>
      <trkpt lat="43.18261" lon="-1.33488">
        <ele>151.76</ele>
        <time>2026-08-31T08:57:56Z</time>
      </trkpt>
      <trkpt lat="43.18276" lon="-1.33466">
        <ele>151.21</ele>
        <time>2026-08-31T08:58:17Z</time>
      </trkpt>
      <trkpt lat="43.1829" lon="-1.33445">
        <ele>150.8</ele>
        <time>2026-08-31T08:58:39Z</time>
      </trkpt>
      <trkpt lat="43.18293" lon="-1.3344">
        <ele>150.42</ele>
        <time>2026-08-31T08:58:54Z</time>
      </trkpt>
      <trkpt lat="43.18293" lon="-1.33436">
        <ele>150.31</ele>
        <time>2026-08-31T08:58:57Z</time>
      </trkpt>
      <trkpt lat="43.18296" lon="-1.33423">
        <ele>150.7</ele>
        <time>2026-08-31T08:59:07Z</time>
      </trkpt>
      <trkpt lat="43.18306" lon="-1.33395">
        <ele>150.33</ele>
        <time>2026-08-31T08:59:32Z</time>
      </trkpt>
      <trkpt lat="43.18317" lon="-1.3338">
        <ele>150.06</ele>
        <time>2026-08-31T08:59:52Z</time>
      </trkpt>
      <trkpt lat="43.18329" lon="-1.33369">
        <ele>149.76</ele>
        <time>2026-08-31T09:00:10Z</time>
      </trkpt>
      <trkpt lat="43.18337" lon="-1.33348">
        <ele>149.41</ele>
        <time>2026-08-31T09:00:30Z</time>
      </trkpt>
      <trkpt lat="43.18338" lon="-1.33344">
        <ele>149.48</ele>
        <time>2026-08-31T09:00:50Z</time>
      </trkpt>
      <trkpt lat="43.18337" lon="-1.33343">
        <ele>148.36</ele>
        <time>2026-08-31T09:01:05Z</time>
      </trkpt>
      <trkpt lat="43.18335" lon="-1.33344">
        <ele>139.31</ele>
        <time>2026-08-31T09:01:11Z</time>
      </trkpt>
      <trkpt lat="43.18335" lon="-1.33345">
        <ele>149.54</ele>
        <time>2026-08-31T09:01:12Z</time>
      </trkpt>
      <trkpt lat="43.18334" lon="-1.33345">
        <ele>153.82</ele>
        <time>2026-08-31T09:01:13Z</time>
      </trkpt>
      <trkpt lat="43.18334" lon="-1.33346">
        <ele>150.09</ele>
        <time>2026-08-31T09:01:14Z</time>
      </trkpt>
      <trkpt lat="43.18333" lon="-1.33345">
        <ele>147.78</ele>
        <time>2026-08-31T09:01:16Z</time>
      </trkpt>
      <trkpt lat="43.18333" lon="-1.33345">
        <ele>148.38</ele>
        <time>2026-08-31T09:01:19Z</time>
      </trkpt>
      <trkpt lat="43.18333" lon="-1.33342">
        <ele>149.99</ele>
        <time>2026-08-31T09:01:33Z</time>
      </trkpt>
      <trkpt lat="43.18329" lon="-1.33343">
        <ele>148.93</ele>
        <time>2026-08-31T09:01:58Z</time>
      </trkpt>
    </trkseg>
  </trk>
</gpx>